Time;durP1;ratioP1;P1;durP2;ratioP2;P2;SDS_P1;SDS_P2;PMS_P1;PMS_P2;Temp;Humidity;BMP_temperature;BMP_pressure;BME280_temperature;BME280_humidity;BME280_pressure;Samples;Min_cycle;Max_cycle;Signal;HPM_P1;HPM_P2
2023/10/10 00:02:05;;;;;;;15.73;10.70;;;;;;;;;;5075874;28;20024;-62
2023/10/10 00:04:33;;;;;;;15.10;11.68;;;;;;;;;;5083487;28;20075;-62
2023/10/10 00:07:04;;;;;;;14.88;11.20;;;;;;;;;;5093095;28;20457;-62
2023/10/10 00:09:30;;;;;;;16.45;12.27;;;;;;;;;;5086893;28;20139;-62
2023/10/10 00:11:57;;;;;;;16.77;12.23;;;;;;;;;;5068182;28;20031;-62
2023/10/10 00:14:27;;;;;;;15.93;12.05;;;;;;;;;;5090083;28;20028;-62
2023/10/10 00:16:59;;;;;;;15.10;11.57;;;;;;;;;;5076327;28;20381;-62
2023/10/10 00:19:29;;;;;;;14.48;11.73;;;;;;;;;;5095033;28;20039;-62
2023/10/10 00:21:55;;;;;;;15.10;12.38;;;;;;;;;;5088424;28;20032;-62
2023/10/10 00:24:30;;;;;;;15.30;12.63;;;;;;;;;;5089860;28;20043;-62
2023/10/10 00:26:58;;;;;;;15.60;12.80;;;;;;;;;;5076328;28;20443;-62
2023/10/10 00:29:26;;;;;;;17.25;12.57;;;;;;;;;;5091845;28;20025;-61
2023/10/10 00:32:04;;;;;;;14.88;12.68;;;;;;;;;;5088543;28;20043;-62
2023/10/10 00:34:34;;;;;;;13.98;11.75;;;;;;;;;;5095663;28;20414;-62
2023/10/10 00:37:07;;;;;;;14.52;12.00;;;;;;;;;;5086171;28;20073;-61
2023/10/10 00:39:35;;;;;;;16.13;11.65;;;;;;;;;;5095598;28;20545;-62
2023/10/10 00:42:05;;;;;;;14.18;11.23;;;;;;;;;;5084297;28;20116;-61
2023/10/10 00:44:33;;;;;;;16.92;12.18;;;;;;;;;;5095319;28;20028;-62
2023/10/10 00:47:03;;;;;;;14.52;11.45;;;;;;;;;;5091831;28;20493;-62
2023/10/10 00:49:31;;;;;;;17.52;12.25;;;;;;;;;;5081157;28;20103;-62
2023/10/10 00:52:01;;;;;;;13.70;11.45;;;;;;;;;;5085874;28;20024;-62
2023/10/10 00:54:31;;;;;;;14.90;12.02;;;;;;;;;;5084951;28;20024;-62
2023/10/10 00:56:57;;;;;;;18.95;11.95;;;;;;;;;;5088376;28;20024;-61
2023/10/10 01:02:23;;;;;;;16.30;11.80;;;;;;;;;;5041510;28;20032;-62
2023/10/10 01:04:57;;;;;;;12.75;11.25;;;;;;;;;;5072822;28;20032;-62
2023/10/10 01:07:25;;;;;;;15.77;11.63;;;;;;;;;;5082161;28;20044;-62
2023/10/10 01:10:07;;;;;;;16.05;12.38;;;;;;;;;;5072122;28;20480;-62
2023/10/10 01:12:35;;;;;;;17.25;13.77;;;;;;;;;;5082331;28;20393;-62
2023/10/10 01:15:12;;;;;;;14.15;12.65;;;;;;;;;;5087268;28;20025;-62
2023/10/10 01:17:38;;;;;;;14.88;11.57;;;;;;;;;;5089071;28;20481;-62
2023/10/10 01:20:11;;;;;;;15.23;12.27;;;;;;;;;;5093673;28;20017;-62
2023/10/10 01:22:39;;;;;;;16.35;11.73;;;;;;;;;;5087320;28;20066;-62
2023/10/10 01:25:40;;;;;;;14.77;11.90;;;;;;;;;;5085572;28;20036;-61
2023/10/10 01:27:54;;;;;;;15.32;11.73;;;;;;;;;;5091760;28;20481;-62
2023/10/10 01:30:43;;;;;;;14.52;11.93;;;;;;;;;;5089967;28;20135;-62
2023/10/10 01:33:07;;;;;;;13.82;11.88;;;;;;;;;;5087383;28;20024;-62
2023/10/10 01:35:34;;;;;;;18.25;12.50;;;;;;;;;;5079275;28;20081;-62
2023/10/10 01:38:00;;;;;;;12.88;11.32;;;;;;;;;;5083315;28;20078;-62
2023/10/10 01:40:28;;;;;;;15.90;11.35;;;;;;;;;;5083594;28;20541;-62
2023/10/10 01:42:54;;;;;;;16.50;11.60;;;;;;;;;;5083990;28;20033;-62
2023/10/10 01:45:23;;;;;;;14.75;11.18;;;;;;;;;;5090888;28;20024;-62
2023/10/10 01:48:03;;;;;;;18.35;12.02;;;;;;;;;;5057080;28;20241;-62
2023/10/10 01:50:33;;;;;;;12.40;11.10;;;;;;;;;;5092961;28;20028;-62
2023/10/10 01:53:16;;;;;;;15.43;12.10;;;;;;;;;;5084557;28;20414;-62
2023/10/10 01:55:42;;;;;;;19.40;12.00;;;;;;;;;;5072910;28;20130;-62
2023/10/10 01:58:12;;;;;;;15.38;12.25;;;;;;;;;;5072716;28;20017;-61
2023/10/10 02:00:38;;;;;;;14.55;11.65;;;;;;;;;;5072510;28;20024;-61
2023/10/10 02:03:04;;;;;;;14.00;11.55;;;;;;;;;;5073014;28;20107;-61
2023/10/10 02:05:45;;;;;;;14.27;12.38;;;;;;;;;;5093010;28;20068;-61
2023/10/10 02:08:16;;;;;;;19.48;12.60;;;;;;;;;;5068767;28;20064;-61
2023/10/10 02:10:46;;;;;;;16.58;12.98;;;;;;;;;;5091515;28;20474;-61
2023/10/10 02:13:14;;;;;;;17.10;12.38;;;;;;;;;;5085122;28;20453;-62
2023/10/10 02:15:40;;;;;;;17.30;12.45;;;;;;;;;;5092209;28;20381;-62
2023/10/10 02:18:12;;;;;;;15.75;13.27;;;;;;;;;;5092562;28;20122;-62
2023/10/10 02:25:46;;;;;;;15.00;12.63;;;;;;;;;;5082854;28;20041;-61
2023/10/10 02:30:50;;;;;;;14.93;12.40;;;;;;;;;;5092564;28;20115;-61
2023/10/10 02:35:56;;;;;;;15.20;12.52;;;;;;;;;;5086620;28;20115;-61
2023/10/10 02:38:39;;;;;;;19.58;12.88;;;;;;;;;;5082905;28;20406;-61
2023/10/10 02:46:21;;;;;;;18.67;12.90;;;;;;;;;;5089100;28;20028;-61
2023/10/10 02:48:53;;;;;;;19.38;13.52;;;;;;;;;;5074931;28;20022;-61
2023/10/10 02:51:20;;;;;;;17.83;12.35;;;;;;;;;;5083406;28;20056;-61
2023/10/10 02:53:46;;;;;;;20.05;12.02;;;;;;;;;;5079810;28;20025;-61
2023/10/10 02:56:17;;;;;;;16.60;11.93;;;;;;;;;;5082352;28;20024;-61
2023/10/10 02:58:45;;;;;;;16.77;11.25;;;;;;;;;;5089783;28;20111;-61
2023/10/10 03:01:30;;;;;;;19.40;12.02;;;;;;;;;;5089830;28;20046;-61
2023/10/10 03:03:56;;;;;;;15.60;11.45;;;;;;;;;;5084123;28;20037;-61
2023/10/10 03:06:28;;;;;;;19.23;11.35;;;;;;;;;;5091778;28;20077;-61
2023/10/10 03:09:12;;;;;;;17.83;11.40;;;;;;;;;;5087647;28;20518;-61
2023/10/10 03:11:53;;;;;;;17.88;11.52;;;;;;;;;;5081773;28;20023;-61
2023/10/10 03:14:27;;;;;;;20.38;12.60;;;;;;;;;;5090211;28;20342;-61
2023/10/10 03:17:01;;;;;;;19.55;11.23;;;;;;;;;;5069933;28;20046;-61
2023/10/10 03:19:28;;;;;;;22.60;11.00;;;;;;;;;;5092243;28;20406;-61
2023/10/10 03:25:04;;;;;;;15.90;10.93;;;;;;;;;;5083695;28;20079;-61
2023/10/10 03:27:51;;;;;;;22.98;11.60;;;;;;;;;;5071258;28;20170;-61
2023/10/10 03:30:30;;;;;;;18.05;11.18;;;;;;;;;;5073259;28;20223;-61
2023/10/10 03:33:35;;;;;;;17.55;11.38;;;;;;;;;;5061502;28;20148;-61
2023/10/10 03:35:59;;;;;;;18.35;10.77;;;;;;;;;;5091466;28;20451;-61
2023/10/10 05:25:13;;;;;;;21.42;13.57;;;35.20;99.90;;;;;;5075340;28;20086;-61
2023/10/10 05:27:43;;;;;;;23.45;13.32;;;35.20;99.90;;;;;;5093070;28;20044;-61
2023/10/10 05:30:23;;;;;;;22.92;14.05;;;35.30;99.90;;;;;;5074979;28;20035;-61
2023/10/10 05:33:02;;;;;;;26.15;14.98;;;35.20;99.90;;;;;;5094261;28;20016;-61
2023/10/10 05:35:47;;;;;;;24.58;13.95;;;35.10;99.90;;;;;;5061102;28;20028;-61
2023/10/10 05:38:15;;;;;;;26.80;15.35;;;35.20;99.90;;;;;;5081727;28;20089;-61
2023/10/10 05:40:43;;;;;;;21.60;14.55;;;35.20;99.90;;;;;;5075146;28;20032;-61
2023/10/10 05:43:13;;;;;;;22.45;14.20;;;35.20;99.90;;;;;;5094429;28;20020;-60
2023/10/10 05:45:40;;;;;;;25.38;16.42;;;35.20;99.90;;;;;;5093087;28;20070;-61
2023/10/10 05:48:05;;;;;;;24.45;14.90;;;35.20;99.90;;;;;;5091515;28;20026;-61
2023/10/10 05:50:35;;;;;;;22.67;15.57;;;35.20;99.90;;;;;;5088603;28;20032;-61
2023/10/10 05:53:03;;;;;;;23.50;15.00;;;35.20;99.90;;;;;;5068993;28;20021;-61
2023/10/10 05:55:33;;;;;;;22.58;14.35;;;35.20;99.90;;;;;;5084323;28;20028;-61
2023/10/10 05:57:59;;;;;;;20.73;14.85;;;35.20;99.90;;;;;;5070536;28;20031;-61
2023/10/10 06:00:28;;;;;;;24.70;15.65;;;35.20;99.90;;;;;;5086202;28;20071;-61
2023/10/10 06:02:54;;;;;;;19.52;15.52;;;35.20;99.90;;;;;;5091290;28;20068;-61
2023/10/10 06:05:20;;;;;;;23.45;15.70;;;35.20;99.90;;;;;;5088336;28;20039;-64
2023/10/10 06:07:48;;;;;;;28.52;16.33;;;35.10;99.90;;;;;;5085085;28;20024;-69
2023/10/10 06:10:17;;;;;;;23.92;15.93;;;35.10;99.90;;;;;;5066054;28;20446;-68
2023/10/10 06:12:52;;;;;;;24.00;16.35;;;35.10;99.90;;;;;;5075092;28;20077;-68
2023/10/10 06:15:18;;;;;;;24.25;16.15;;;35.20;99.90;;;;;;5081012;28;20051;-68
2023/10/10 06:17:49;;;;;;;33.33;16.48;;;35.20;99.90;;;;;;5093400;28;20070;-68
2023/10/10 06:20:21;;;;;;;26.52;15.63;;;35.20;99.90;;;;;;5068406;28;20028;-69
2023/10/10 06:22:48;;;;;;;27.77;15.85;;;35.20;99.90;;;;;;5085486;28;20111;-69
2023/10/10 06:25:17;;;;;;;20.63;15.05;;;35.20;99.90;;;;;;5090907;28;20055;-69
2023/10/10 06:27:54;;;;;;;28.10;15.02;;;35.20;99.90;;;;;;5074731;28;20048;-69
2023/10/10 06:30:24;;;;;;;24.83;16.45;;;35.10;99.90;;;;;;5089497;28;20020;-69
2023/10/10 06:32:50;;;;;;;29.67;16.88;;;35.20;99.90;;;;;;5062768;28;20012;-69
2023/10/10 06:37:52;;;;;;;26.40;17.17;;;35.20;99.90;;;;;;5093262;28;20037;-69
2023/10/10 06:40:25;;;;;;;28.45;17.08;;;35.20;99.90;;;;;;5085575;28;20028;-69
2023/10/10 06:43:00;;;;;;;23.38;16.35;;;35.20;99.90;;;;;;5079268;28;20027;-68
2023/10/10 06:45:35;;;;;;;29.55;17.40;;;35.20;99.90;;;;;;5091793;28;20054;-69
2023/10/10 06:48:01;;;;;;;28.60;17.73;;;35.30;99.90;;;;;;5081120;28;20020;-69
2023/10/10 06:50:31;;;;;;;24.77;17.83;;;35.30;99.90;;;;;;5092305;28;20023;-69
2023/10/10 06:53:00;;;;;;;25.98;17.42;;;35.30;99.90;;;;;;5079291;28;20485;-68
2023/10/10 06:55:36;;;;;;;27.25;17.63;;;35.30;99.90;;;;;;5069557;28;20393;-68
2023/10/10 06:58:02;;;;;;;32.75;18.67;;;35.40;99.90;;;;;;5067812;28;20032;-68
2023/10/10 07:00:53;;;;;;;28.08;18.77;;;35.30;99.90;;;;;;5083407;28;20058;-68
2023/10/10 07:03:19;;;;;;;26.63;18.23;;;35.40;99.90;;;;;;5086780;28;20028;-68
2023/10/10 07:05:48;;;;;;;28.73;18.35;;;35.30;99.90;;;;;;5091725;28;20097;-68
2023/10/10 07:08:19;;;;;;;26.75;18.92;;;35.30;99.90;;;;;;5061445;28;20059;-68
2023/10/10 07:10:45;;;;;;;28.73;17.25;;;35.30;99.90;;;;;;5080211;28;20047;-68
2023/10/10 07:13:14;;;;;;;25.15;18.35;;;35.30;99.90;;;;;;5070974;28;20047;-69
2023/10/10 07:15:42;;;;;;;29.73;19.67;;;35.40;99.90;;;;;;5071442;28;20020;-69
2023/10/10 07:18:15;;;;;;;26.65;20.10;;;35.40;99.90;;;;;;5067296;28;20068;-69
2023/10/10 07:23:37;;;;;;;32.30;20.33;;;35.40;99.90;;;;;;5092334;28;20043;-69
2023/10/10 07:26:05;;;;;;;29.63;19.30;;;35.50;99.90;;;;;;5087476;28;20048;-68
2023/10/10 07:28:47;;;;;;;34.17;19.30;;;35.50;99.90;;;;;;5054977;28;20079;-69
2023/10/10 07:31:17;;;;;;;27.38;19.80;;;35.50;99.90;;;;;;5076167;28;20047;-68
2023/10/10 07:33:54;;;;;;;28.65;19.65;;;35.50;99.90;;;;;;5068803;28;20398;-68
2023/10/10 07:36:24;;;;;;;37.25;20.55;;;35.50;99.90;;;;;;5082590;28;20024;-69
2023/10/10 07:38:54;;;;;;;32.22;17.75;;;35.60;99.90;;;;;;5087277;28;20058;-69
2023/10/10 07:41:28;;;;;;;28.45;18.75;;;35.60;99.90;;;;;;5068235;28;20032;-69
2023/10/10 07:43:58;;;;;;;35.38;17.52;;;35.60;99.90;;;;;;5078490;28;20020;-69
2023/10/10 07:46:27;;;;;;;25.27;13.70;;;35.70;99.90;;;;;;5080976;28;20070;-69
2023/10/10 07:48:56;;;;;;;22.08;12.05;;;35.60;99.90;;;;;;5091748;28;20076;-68
2023/10/10 07:51:28;;;;;;;27.02;13.65;;;35.70;99.90;;;;;;5083675;28;20107;-69
2023/10/10 07:54:10;;;;;;;28.40;12.98;;;35.60;99.90;;;;;;5086942;28;20175;-68
2023/10/10 07:56:44;;;;;;;22.98;13.65;;;35.70;99.90;;;;;;5091989;28;20043;-69
2023/10/10 07:59:13;;;;;;;24.13;14.35;;;35.60;99.90;;;;;;5071433;28;20024;-69
2023/10/10 08:01:41;;;;;;;28.70;13.38;;;35.70;99.90;;;;;;5091857;28;20024;-70
2023/10/10 08:04:07;;;;;;;31.50;13.90;;;35.70;99.90;;;;;;5090608;28;20051;-69
2023/10/10 08:06:33;;;;;;;22.17;13.13;;;35.70;99.90;;;;;;5073538;28;20035;-70
2023/10/10 08:11:46;;;;;;;22.83;12.57;;;35.70;99.90;;;;;;5074817;28;20123;-69
2023/10/10 08:14:13;;;;;;;28.52;13.18;;;35.80;99.90;;;;;;5062253;28;20575;-69
2023/10/10 08:16:41;;;;;;;25.13;13.27;;;35.80;99.90;;;;;;5062149;28;20054;-68
2023/10/10 08:19:08;;;;;;;21.77;11.85;;;35.80;99.90;;;;;;5073778;28;20058;-68
2023/10/10 08:21:37;;;;;;;21.90;12.23;;;35.90;99.90;;;;;;5067122;28;20385;-69
2023/10/10 08:24:07;;;;;;;22.38;12.13;;;35.90;99.90;;;;;;5090876;28;20373;-69
2023/10/10 08:26:40;;;;;;;21.65;13.35;;;35.90;99.90;;;;;;5070963;28;20044;-69
2023/10/10 08:29:13;;;;;;;25.52;14.90;;;35.90;99.90;;;;;;5095706;28;20035;-69
2023/10/10 08:31:42;;;;;;;21.60;13.30;;;35.90;99.90;;;;;;5062633;28;20508;-69
2023/10/10 08:34:11;;;;;;;25.30;14.63;;;35.90;99.90;;;;;;5093924;28;20431;-68
2023/10/10 08:36:37;;;;;;;27.50;13.90;;;35.90;99.90;;;;;;5093011;28;20051;-68
2023/10/10 08:41:42;;;;;;;23.75;13.02;;;35.90;99.90;;;;;;5091217;28;20043;-68
2023/10/10 08:44:09;;;;;;;25.17;12.50;;;35.90;99.90;;;;;;5094907;28;20089;-68
2023/10/10 08:46:43;;;;;;;29.10;12.50;;;36.00;99.90;;;;;;5086859;28;20040;-68
2023/10/10 08:49:09;;;;;;;22.48;11.57;;;36.00;99.90;;;;;;5093904;28;20008;-69
2023/10/10 08:51:35;;;;;;;19.23;11.05;;;36.10;99.90;;;;;;5092491;28;20032;-68
2023/10/10 08:54:15;;;;;;;20.08;11.27;;;36.10;99.90;;;;;;5088835;28;21393;-68
2023/10/10 08:56:59;;;;;;;20.77;10.63;;;36.10;99.90;;;;;;5087959;28;20032;-69
2023/10/10 08:59:28;;;;;;;18.27;9.65;;;;;;;;;;5087390;28;20016;-69
2023/10/10 09:01:55;;;;;;;19.55;10.43;;;;;;;;;;5073495;28;20396;-70
2023/10/10 09:04:30;;;;;;;18.95;7.70;;;;;;;;;;5085742;28;20025;-70
2023/10/10 09:09:36;;;;;;;20.00;8.88;;;;;;;;;;5089811;28;20024;-70
2023/10/10 09:12:04;;;;;;;19.38;8.02;;;;;;;;;;5081133;28;20036;-69
2023/10/10 09:14:40;;;;;;;17.73;8.73;;;;;;;;;;5088531;28;20020;-70
2023/10/10 09:17:11;;;;;;;14.93;7.85;;;36.10;99.90;;;;;;5090715;28;20060;-70
2023/10/10 09:19:48;;;;;;;15.80;8.38;;;36.30;99.90;;;;;;5094508;28;20023;-69
2023/10/10 09:22:51;;;;;;;20.63;8.82;;;36.30;99.90;;;;;;5088463;28;20082;-69
2023/10/10 09:25:25;;;;;;;16.95;7.45;;;36.30;99.90;;;;;;5074425;28;20044;-69
2023/10/10 09:28:03;;;;;;;17.45;7.68;;;36.40;99.90;;;;;;5092157;28;20050;-69
2023/10/10 09:30:40;;;;;;;22.58;8.27;;;;;;;;;;5055870;28;20090;-69
2023/10/10 09:35:53;;;;;;;;;;;;;;;;;;5082336;28;20381;-69
2023/10/10 09:38:22;;;;;;;23.77;8.82;;;;;;;;;;5094158;28;19991;-69
2023/10/10 09:40:48;;;;;;;19.02;7.93;;;;;;;;;;5084856;28;20028;-69
2023/10/10 09:43:24;;;;;;;17.58;8.95;;;;;;;;;;5087992;28;20028;-69
2023/10/10 09:45:52;;;;;;;21.23;8.18;;;;;;;;;;5090166;28;20440;-69
2023/10/10 09:48:28;;;;;;;17.35;8.68;;;;;;;;;;5079546;28;20092;-69
2023/10/10 09:53:46;;;;;;;18.42;8.68;;;;;;;;;;5087975;28;20089;-69
2023/10/10 09:56:21;;;;;;;18.55;7.75;;;;;;;;;;5081650;28;20020;-69
2023/10/10 09:58:47;;;;;;;;;;;;;;;;;;5064972;28;20032;-69
2023/10/10 10:01:22;;;;;;;16.25;8.73;;;;;;;;;;5087098;28;20303;-69
2023/10/10 10:04:02;;;;;;;21.88;9.25;;;;;;;;;;5068809;28;20115;-69
2023/10/10 10:06:54;;;;;;;20.80;9.05;;;;;;;;;;5061559;28;20043;-69
2023/10/10 10:09:20;;;;;;;18.63;9.18;;;;;;;;;;5091864;28;20071;-69
2023/10/10 10:11:59;;;;;;;21.00;9.20;;;;;;;;;;5083760;28;20517;-69
2023/10/10 10:14:49;;;;;;;14.82;6.97;;;;;;;;;;5092390;28;20104;-70
2023/10/10 10:17:23;;;;;;;13.32;7.85;;;;;;;;;;5039878;28;20039;-69
2023/10/10 10:19:49;;;;;;;;;;;;;;;;;;5091084;28;20023;-69
2023/10/10 10:22:21;;;;;;;15.27;7.97;;;;;;;;;;5093213;28;19904;-69
2023/10/10 10:24:47;;;;;;;15.25;8.02;;;;;;;;;;5086935;28;20028;-69
2023/10/10 10:27:35;;;;;;;19.05;7.50;;;;;;;;;;5083924;28;20048;-69
2023/10/10 10:30:18;;;;;;;13.68;6.63;;;;;;;;;;5087192;28;20397;-70
2023/10/10 10:32:44;;;;;;;18.58;8.13;;;;;;;;;;5088774;28;20028;-69
2023/10/10 10:35:15;;;;;;;19.17;7.80;;;;;;;;;;5065652;28;20440;-69
2023/10/10 10:37:44;;;;;;;14.55;6.75;;;;;;;;;;5070114;28;20035;-69
2023/10/10 10:42:46;;;;;;;21.90;7.40;;;;;;;;;;5077056;28;20020;-69
2023/10/10 10:45:35;;;;;;;15.45;7.00;;;;;;;;;;5081977;28;20051;-69
2023/10/10 10:48:29;;;;;;;15.27;6.88;;;;;;;;;;5074421;28;20024;-69
2023/10/10 10:50:58;;;;;;;16.67;7.15;;;;;;;;;;5064106;28;20398;-69
2023/10/10 10:53:30;;;;;;;16.83;7.50;;;;;;;;;;5072954;28;20020;-69
2023/10/10 10:56:37;;;;;;;17.48;6.63;;;;;;;;;;5062376;28;20040;-69
2023/10/10 11:01:21;;;;;;;18.70;6.93;;;;;;;;;;5078627;28;20029;-69
2023/10/10 11:03:51;;;;;;;17.73;6.43;;;;;;;;;;5082372;28;20446;-69
2023/10/10 11:06:20;;;;;;;14.80;5.65;;;;;;;;;;5073645;28;20068;-69
2023/10/10 11:14:00;;;;;;;14.82;5.65;;;;;;;;;;5092460;28;20032;-69
2023/10/10 11:16:46;;;;;;;15.50;6.60;;;;;;;;;;5073048;28;20063;-69
2023/10/10 11:21:53;;;;;;;15.88;6.43;;;;;;;;;;5092904;28;20043;-69
2023/10/10 11:24:29;;;;;;;17.00;5.30;;;;;;;;;;5087081;28;20139;-69
2023/10/10 11:27:13;;;;;;;12.27;5.72;;;;;;;;;;5092374;28;20040;-69
2023/10/10 11:30:07;;;;;;;21.42;6.18;;;;;;;;;;5090186;28;20504;-69
2023/10/10 11:32:45;;;;;;;17.25;6.80;;;;;;;;;;5083895;28;20165;-69
2023/10/10 11:35:21;;;;;;;12.82;5.93;;;;;;;;;;5075669;28;20438;-69
2023/10/10 11:44:01;;;;;;;18.05;6.75;;;;;;;;;;5076768;28;20031;-69
2023/10/10 11:46:28;;;;;;;15.50;6.53;;;;;;;;;;5078024;28;20469;-69
2023/10/10 11:48:55;;;;;;;14.20;5.95;;;;;;;;;;5091657;28;20052;-69
2023/10/10 11:51:36;;;;;;;12.48;5.53;;;;;;;;;;5089958;28;20055;-70
2023/10/10 11:54:03;;;;;;;16.08;6.82;;;;;;;;;;5083083;28;20032;-69
2023/10/10 11:56:34;;;;;;;15.30;6.47;;;;;;;;;;5095905;28;20474;-70
2023/10/10 11:59:00;;;;;;;12.85;5.82;;;;;;;;;;5076518;28;20039;-70
2023/10/10 12:06:58;;;;;;;17.70;6.55;;;;;;;;;;5084247;28;20042;-70
2023/10/10 12:09:26;;;;;;;19.85;6.32;;;;;;;;;;5096065;28;20049;-69
2023/10/10 12:12:04;;;;;;;16.38;6.50;;;;;;;;;;5094270;28;20039;-70
2023/10/10 12:14:31;;;;;;;14.20;6.53;;;;;;;;;;5095721;28;20449;-69
2023/10/10 12:16:58;;;;;;;14.55;6.05;;;;;;;;;;5076242;28;20063;-70
2023/10/10 12:19:25;;;;;;;17.83;6.60;;;;;;;;;;5095339;28;20021;-70
2023/10/10 12:21:51;;;;;;;15.52;6.45;;;;;;;;;;5067947;28;20028;-69
2023/10/10 12:24:17;;;;;;;17.80;6.88;;;;;;;;;;5095635;28;20119;-69
2023/10/10 12:26:43;;;;;;;12.55;5.80;;;;;;;;;;5070332;28;20048;-69
2023/10/10 12:29:14;;;;;;;15.27;6.47;;;;;;;;;;5055171;28;20482;-69
2023/10/10 12:31:40;;;;;;;15.73;5.93;;;;;;;;;;5063222;28;20043;-69
2023/10/10 12:34:09;;;;;;;17.95;6.15;;;;;;;;;;5073322;28;20078;-69
2023/10/10 12:36:36;;;;;;;14.63;6.28;;;;;;;;;;5074577;28;20066;-69
2023/10/10 12:39:14;;;;;;;14.57;5.90;;;;;;;;;;5062993;28;20383;-69
2023/10/10 12:41:45;;;;;;;19.13;6.10;;;;;;;;;;5068388;28;20104;-69
2023/10/10 12:44:12;;;;;;;19.65;6.05;;;;;;;;;;5064005;28;20029;-70
2023/10/10 12:46:40;;;;;;;21.00;6.10;;;;;;;;;;5070004;28;20366;-69
2023/10/10 12:49:11;;;;;;;13.50;6.93;;;;;;;;;;5071898;28;20028;-69
2023/10/10 12:51:38;;;;;;;19.13;6.88;;;;;;;;;;5068210;28;20486;-69
2023/10/10 12:54:05;;;;;;;14.48;6.25;;;;;;;;;;5064028;28;20063;-69
2023/10/10 12:56:38;;;;;;;16.50;6.38;;;;;;;;;;5059479;28;20020;-69
2023/10/10 12:59:07;;;;;;;15.48;5.20;;;;;;;;;;5067635;28;20040;-70
2023/10/10 13:01:35;;;;;;;14.88;5.60;;;;;;;;;;5062520;28;20025;-69
2023/10/10 13:04:07;;;;;;;18.02;6.03;;;;;;;;;;5069613;28;20020;-69
2023/10/10 13:06:35;;;;;;;15.45;6.28;;;;;;;;;;5062261;28;20124;-69
2023/10/10 13:09:05;;;;;;;14.95;5.78;;;;;;;;;;5066278;28;20070;-69
2023/10/10 13:11:43;;;;;;;14.00;6.07;;;;;;;;;;5060169;28;20032;-69
2023/10/10 13:14:10;;;;;;;14.45;6.22;;;;;;;;;;5059652;28;20028;-69
2023/10/10 13:19:12;;;;;;;14.20;5.25;;;;;;;;;;5070088;28;20423;-69
2023/10/10 13:21:47;;;;;;;18.25;6.47;;;;;;;;;;5074162;28;20054;-69
2023/10/10 13:24:18;;;;;;;14.15;6.57;;;;;;;;;;5073173;28;20394;-69
2023/10/10 13:26:45;;;;;;;15.30;5.32;;;;;;;;;;5074804;28;20056;-69
2023/10/10 13:29:13;;;;;;;14.93;6.15;;;;;;;;;;5091863;28;20035;-69
2023/10/10 13:31:41;;;;;;;20.80;6.65;;;;;;;;;;5094377;28;20024;-69
2023/10/10 13:34:07;;;;;;;14.98;5.75;;;;;;;;;;5074702;28;20063;-69
2023/10/10 13:36:33;;;;;;;14.98;5.47;;;;;;;;;;5094821;28;20447;-69
2023/10/10 13:39:05;;;;;;;11.02;5.43;;;;;;;;;;5092643;28;20043;-69
2023/10/10 13:41:35;;;;;;;17.80;6.45;;;;;;;;;;5088012;28;20035;-69
2023/10/10 13:44:02;;;;;;;14.98;5.22;;;;;;;;;;5091254;28;20023;-68
2023/10/10 13:46:28;;;;;;;19.80;6.30;;;;;;;;;;5078378;28;20508;-69
2023/10/10 13:48:54;;;;;;;20.88;5.60;;;;;;;;;;5087465;28;20090;-69
2023/10/10 13:51:20;;;;;;;19.42;5.18;;;;;;;;;;5093824;28;20115;-69
2023/10/10 13:53:47;;;;;;;13.35;5.30;;;;;;;;;;5094498;28;20040;-69
2023/10/10 13:56:16;;;;;;;15.30;5.80;;;;;;;;;;5074725;28;20028;-69
2023/10/10 13:58:51;;;;;;;10.40;5.35;;;;;;;;;;5094398;28;20051;-69
2023/10/10 14:01:36;;;;;;;14.38;6.28;;;;;;;;;;5084816;28;20024;-69
2023/10/10 14:07:00;;;;;;;19.95;7.03;;;;;;;;;;5069010;28;20044;-69
2023/10/10 14:09:31;;;;;;;13.23;5.93;;;;;;;;;;5089065;28;20040;-69
2023/10/10 14:12:00;;;;;;;13.20;5.75;;;;;;;;;;5078420;28;20055;-68
2023/10/10 14:14:26;;;;;;;11.98;6.70;;;;;;;;;;5090635;28;20414;-69
2023/10/10 14:16:52;;;;;;;14.65;6.85;;;;;;;;;;5082648;28;20024;-69
2023/10/10 14:19:23;;;;;;;16.73;6.93;;;;;;;;;;5084123;28;20074;-69
2023/10/10 14:21:52;;;;;;;16.55;6.15;;;;;;;;;;5076564;28;20016;-69
2023/10/10 14:24:18;;;;;;;19.23;7.28;;;;;;;;;;5080082;28;20031;-69
2023/10/10 14:26:44;;;;;;;13.60;5.95;;;;;;;;;;5077899;28;20140;-69
2023/10/10 14:29:14;;;;;;;12.35;6.20;;;;;;;;;;5082901;28;20024;-70
2023/10/10 14:31:44;;;;;;;17.00;6.72;;;;;;;;;;5091668;28;20036;-69
2023/10/10 14:34:24;;;;;;;18.08;6.15;;;;;;;;;;5093612;28;20012;-70
2023/10/10 14:36:53;;;;;;;14.88;6.63;;;;;;;;;;5090553;28;20043;-70
2023/10/10 14:39:28;;;;;;;16.23;6.05;;;;;;;;;;5071050;28;20547;-69
2023/10/10 14:41:57;;;;;;;11.45;6.18;;;;;;;;;;5082167;28;20064;-69
2023/10/10 14:44:26;;;;;;;13.38;6.32;;;;;;;;;;5076703;28;20385;-68
2023/10/10 14:46:54;;;;;;;15.07;6.35;;;;;;;;;;5087771;28;20032;-69
2023/10/10 14:49:28;;;;;;;14.82;6.35;;;;;;;;;;5089663;28;20056;-69
2023/10/10 14:51:55;;;;;;;16.17;6.35;;;;;;;;;;5087120;28;20043;-68
2023/10/10 14:54:21;;;;;;;13.13;6.32;;;;;;;;;;5092215;28;20107;-69
2023/10/10 14:56:51;;;;;;;10.98;5.63;;;;;;;;;;5063145;28;20401;-68
2023/10/10 14:59:25;;;;;;;17.60;5.85;;;;;;;;;;5080660;28;20032;-68
2023/10/10 15:01:52;;;;;;;13.05;6.47;;;;;;;;;;5086223;28;20024;-67
2023/10/10 15:04:19;;;;;;;11.00;6.10;;;;;;;;;;5092516;28;20111;-67
2023/10/10 15:06:49;;;;;;;17.58;6.53;;;;;;;;;;5081424;28;20430;-66
2023/10/10 15:12:43;;;;;;;16.05;6.03;;;;;;;;;;5077731;28;20586;-67
2023/10/10 15:15:09;;;;;;;15.82;7.20;;;;;;;;;;5078643;28;20024;-67
2023/10/10 15:17:36;;;;;;;18.52;7.03;;;;;;;;;;5082581;28;20064;-66
2023/10/10 15:20:11;;;;;;;16.42;6.70;;;;;;;;;;5084339;28;20039;-67
2023/10/10 15:22:41;;;;;;;20.45;8.18;;;;;;;;;;5072777;28;20029;-66
2023/10/10 15:25:08;;;;;;;19.55;7.15;;;;;;;;;;5091637;28;20495;-66
2023/10/10 15:27:34;;;;;;;18.00;6.97;;;;;;;;;;5089357;28;20040;-67
2023/10/10 15:30:00;;;;;;;13.75;7.20;;;;;;;;;;5092472;28;20130;-67
2023/10/10 15:32:33;;;;;;;19.30;7.75;;;;;;;;;;5089437;28;20024;-67
2023/10/10 15:35:00;;;;;;;16.27;6.53;;;;;;;;;;5092332;28;20020;-67
2023/10/10 15:37:26;;;;;;;17.65;6.88;;;;;;;;;;5083397;28;20107;-67
2023/10/10 15:39:57;;;;;;;16.95;5.95;;;;;;;;;;5070197;28;20063;-67
2023/10/10 15:42:23;;;;;;;13.80;6.32;;;;;;;;;;5086447;28;20019;-67
2023/10/10 15:44:49;;;;;;;23.77;8.02;;;;;;;;;;5073042;28;20374;-67
2023/10/10 15:47:15;;;;;;;16.73;6.82;;;;;;;;;;5074063;28;20050;-67
2023/10/10 15:49:41;;;;;;;16.40;6.40;;;;;;;;;;5090854;28;20031;-68
2023/10/10 15:52:07;;;;;;;11.27;6.00;;;;;;;;;;5082974;28;20484;-67
2023/10/10 15:54:33;;;;;;;13.90;5.88;;;;;;;;;;5092055;28;20028;-67
2023/10/10 15:57:05;;;;;;;15.18;6.07;;;;;;;;;;5071606;28;20077;-67
2023/10/10 15:59:31;;;;;;;17.75;6.47;;;;;;;;;;5090125;28;20754;-67
2023/10/10 16:01:58;;;;;;;16.30;6.82;;;;;;;;;;5084593;28;20098;-67
2023/10/10 16:07:29;;;;;;;13.68;5.82;;;;;;;;;;5072429;28;20047;-67
2023/10/10 16:09:55;;;;;;;18.10;6.47;;;;;;;;;;5087899;28;20094;-67
2023/10/10 16:12:22;;;;;;;14.95;6.53;;;;;;;;;;5082181;28;20493;-68
2023/10/10 16:14:48;;;;;;;15.73;5.53;;;;;;;;;;5090905;28;20039;-67
2023/10/10 16:17:15;;;;;;;13.40;5.57;;;;;;;;;;5091894;28;20412;-67
2023/10/10 16:19:42;;;;;;;16.23;5.70;;;;;;;;;;5076054;28;20037;-67
2023/10/10 16:22:13;;;;;;;13.85;6.13;;;;;;;;;;5091911;28;20107;-67
2023/10/10 16:24:39;;;;;;;14.23;6.90;;;;;;;;;;5070426;28;20036;-67
2023/10/10 16:27:05;;;;;;;16.20;6.05;;;;;;;;;;5091116;28;20046;-67
2023/10/10 16:29:34;;;;;;;12.57;6.32;;;;;;;;;;5072128;28;20158;-67
2023/10/10 16:32:01;;;;;;;18.05;5.95;;;;;;;;;;5086957;28;20027;-67
2023/10/10 16:34:32;;;;;;;14.43;6.05;;;;;;;;;;5090682;28;20046;-67
2023/10/10 16:36:58;;;;;;;15.70;5.85;;;;;;;;;;5087940;28;20039;-67
2023/10/10 16:39:24;;;;;;;10.55;5.25;;;;;;;;;;5088457;28;20020;-68
2023/10/10 16:41:49;;;;;;;17.42;5.75;;;;;;;;;;5071062;28;20036;-68
2023/10/10 16:44:22;;;;;;;16.50;6.10;;;;;;;;;;5084867;28;20044;-69
2023/10/10 16:46:49;;;;;;;16.95;5.65;;;;;;;;;;5069655;28;20443;-68
2023/10/10 16:49:15;;;;;;;13.93;6.35;;;;;;;;;;5084212;28;20108;-68
2023/10/10 16:51:41;;;;;;;12.60;5.88;;;;;;;;;;5074874;28;20056;-68
2023/10/10 16:54:07;;;;;;;16.13;6.38;;;;;;;;;;5063770;28;20032;-68
2023/10/10 16:56:36;;;;;;;20.08;9.07;;;;;;;;;;5057357;28;20078;-69
2023/10/10 16:59:04;;;;;;;17.15;9.25;;;;;;;;;;5087947;28;20028;-68
2023/10/10 17:01:30;;;;;;;57.13;37.85;;;;;;;;;;5087576;28;20134;-68
2023/10/10 17:03:57;;;;;;;50.17;31.10;;;;;;;;;;5080660;28;20078;-68
2023/10/10 17:06:25;;;;;;;52.78;31.58;;;;;;;;;;5086830;28;20043;-68
2023/10/10 17:08:54;;;;;;;84.45;52.13;;;;;;;;;;5077786;28;20581;-68
2023/10/10 17:11:21;;;;;;;45.90;29.00;;;;;;;;;;5086994;28;20035;-68
2023/10/10 17:13:47;;;;;;;72.18;42.53;;;;;;;;;;5090612;28;20469;-68
2023/10/10 17:16:18;;;;;;;62.88;38.13;;;;;;;;;;5074789;28;20111;-68
2023/10/10 17:21:58;;;;;;;43.13;27.10;;;;;;;;;;5080463;28;20444;-69